createdAt,value
2022-12-03T00:00:24.496Z,41.28
2022-12-03T00:02:52.774Z,43.10
2022-12-03T00:05:20.837Z,43.78
2022-12-03T00:07:48.625Z,42.08
2022-12-03T00:10:16.996Z,46.45
2022-12-03T00:12:44.869Z,46.45
2022-12-03T00:15:12.832Z,39.17
2022-12-03T00:17:41.021Z,36.60
2022-12-03T00:20:11.977Z,39.75
2022-12-03T00:22:39.749Z,40.75
2022-12-03T00:25:08.410Z,37.92
2022-12-03T00:27:36.447Z,41.33
2022-12-03T00:30:05.238Z,37.75
2022-12-03T00:32:33.187Z,39.03
2022-12-03T00:35:00.888Z,40.25
2022-12-03T00:37:28.732Z,38.78
2022-12-03T00:39:56.576Z,37.30
2022-12-03T00:42:24.229Z,36.65
2022-12-03T00:44:52.339Z,39.58
2022-12-03T00:47:20.241Z,38.58
2022-12-03T00:49:47.940Z,42.10
2022-12-03T00:52:15.877Z,42.28
2022-12-03T00:54:43.639Z,43.40
2022-12-03T00:57:11.560Z,42.47
2022-12-03T00:59:41.632Z,42.90
2022-12-03T01:02:09.765Z,42.85
2022-12-03T01:04:37.878Z,42.70
2022-12-03T01:07:05.842Z,43.60
2022-12-03T01:09:33.834Z,44.13
2022-12-03T01:12:01.827Z,44.92
2022-12-03T01:14:29.473Z,46.92
2022-12-03T01:16:57.360Z,48.92
2022-12-03T01:19:25.875Z,48.28
2022-12-03T01:21:53.884Z,47.33
2022-12-03T01:24:22.533Z,50.28
2022-12-03T01:26:50.223Z,51.28
2022-12-03T01:29:18.147Z,53.38
2022-12-03T01:32:04.137Z,54.42
2022-12-03T01:34:32.276Z,50.42
2022-12-03T01:36:59.910Z,55.50
2022-12-03T01:39:27.976Z,52.22
2022-12-03T01:41:56.408Z,49.75
2022-12-03T01:44:30.738Z,56.30
2022-12-03T01:47:02.598Z,49.35
2022-12-03T01:49:42.706Z,54.35
2022-12-03T01:52:17.035Z,50.20
2022-12-03T01:54:55.164Z,47.75
2022-12-03T01:57:45.354Z,47.20
2022-12-03T02:00:15.779Z,46.95
2022-12-03T02:05:21.618Z,46.78
2022-12-03T02:07:49.743Z,49.38
2022-12-03T02:10:20.385Z,47.05
2022-12-03T02:12:54.951Z,49.60
2022-12-03T02:15:22.795Z,47.47
2022-12-03T02:17:51.072Z,47.70
2022-12-03T02:20:19.385Z,49.50
2022-12-03T02:23:02.914Z,47.70
2022-12-03T02:25:34.980Z,45.58
2022-12-03T02:28:04.729Z,45.15
2022-12-03T02:30:33.028Z,45.40
2022-12-03T02:33:01.545Z,44.35
2022-12-03T02:35:33.519Z,41.33
2022-12-03T02:38:13.499Z,42.05
2022-12-03T02:40:42.115Z,42.45
2022-12-03T02:43:11.167Z,41.85
2022-12-03T02:45:41.144Z,42.53
2022-12-03T02:48:19.087Z,43.08
2022-12-03T02:50:51.196Z,42.10
2022-12-03T02:53:25.265Z,42.85
2022-12-03T02:55:54.853Z,44.85
2022-12-03T02:58:24.976Z,43.43
2022-12-03T03:00:54.453Z,44.75
2022-12-03T03:03:24.151Z,47.03
2022-12-03T03:05:53.114Z,46.65
2022-12-03T03:08:20.898Z,47.78
2022-12-03T03:10:49.647Z,46.63
2022-12-03T03:13:19.365Z,49.30
2022-12-03T03:15:47.620Z,51.42
2022-12-03T03:18:16.072Z,48.05
2022-12-03T03:20:44.687Z,48.80
2022-12-03T03:23:18.306Z,46.97
2022-12-03T03:25:49.982Z,47.13
2022-12-03T03:28:19.569Z,49.75
2022-12-03T03:30:47.550Z,46.90
2022-12-03T03:33:16.088Z,48.75
2022-12-03T03:35:46.676Z,46.50
2022-12-03T03:38:15.798Z,48.38
2022-12-03T03:40:44.404Z,47.28
2022-12-03T03:43:13.167Z,44.22
2022-12-03T03:45:41.038Z,45.75
2022-12-03T03:48:08.576Z,46.75
2022-12-03T03:50:36.845Z,50.00
2022-12-03T03:53:05.276Z,45.90
2022-12-03T03:55:33.951Z,45.13
2022-12-03T03:58:02.170Z,42.40
2022-12-03T04:00:30.927Z,38.53
2022-12-03T04:02:59.085Z,44.95
2022-12-03T04:05:28.032Z,44.03
2022-12-03T04:07:55.890Z,41.22
2022-12-03T04:10:42.136Z,42.30
2022-12-03T04:13:09.642Z,43.15
2022-12-03T04:15:37.378Z,44.15
2022-12-03T04:18:24.163Z,47.08
2022-12-03T04:20:51.823Z,44.80
2022-12-03T04:23:19.560Z,42.63
2022-12-03T04:26:05.886Z,45.75
2022-12-03T04:28:52.479Z,44.88
2022-12-03T04:31:38.615Z,41.03
2022-12-03T04:34:25.156Z,40.78
2022-12-03T04:36:52.935Z,38.28
2022-12-03T04:39:20.674Z,42.67
2022-12-03T04:41:48.509Z,40.17
2022-12-03T04:44:34.164Z,38.40
2022-12-03T04:47:23.994Z,38.35
2022-12-03T04:49:52.784Z,38.80
2022-12-03T04:52:21.628Z,38.63
2022-12-03T04:54:49.134Z,37.47
2022-12-03T04:57:17.144Z,38.17
2022-12-03T04:59:44.751Z,37.17
2022-12-03T05:02:12.555Z,36.80
2022-12-03T05:04:40.379Z,37.20
2022-12-03T05:07:08.307Z,36.88
2022-12-03T05:09:36.307Z,41.88
2022-12-03T05:12:04.251Z,39.75
2022-12-03T05:14:32.417Z,38.53
2022-12-03T05:17:00.226Z,39.25
2022-12-03T05:19:47.941Z,41.85
2022-12-03T05:22:15.780Z,37.92
2022-12-03T05:24:44.144Z,39.72
2022-12-03T05:27:11.954Z,38.55
2022-12-03T05:29:40.145Z,40.13
2022-12-03T05:32:08.154Z,39.28
2022-12-03T05:34:35.987Z,37.25
2022-12-03T05:37:03.994Z,34.28
2022-12-03T05:39:31.846Z,40.63
2022-12-03T05:42:18.382Z,38.72
2022-12-03T05:44:46.576Z,35.92
2022-12-03T05:47:14.424Z,38.47
2022-12-03T05:49:42.410Z,39.15
2022-12-03T05:52:10.484Z,39.22
2022-12-03T05:54:38.360Z,38.70
2022-12-03T05:57:06.294Z,40.40
2022-12-03T05:59:34.539Z,45.80
2022-12-03T06:02:02.889Z,44.25
2022-12-03T06:04:30.602Z,44.85
2022-12-03T06:06:58.397Z,44.55
2022-12-03T06:09:26.577Z,46.08
2022-12-03T06:11:54.467Z,42.55
2022-12-03T06:14:22.723Z,43.90
2022-12-03T06:16:50.513Z,46.90
2022-12-03T06:19:18.588Z,49.65
2022-12-03T06:21:46.324Z,48.22
2022-12-03T06:24:14.146Z,51.28
2022-12-03T06:26:41.949Z,56.67
2022-12-03T06:29:10.008Z,56.67
2022-12-03T06:31:38.143Z,51.60
2022-12-03T06:34:05.861Z,56.38
2022-12-03T06:36:33.776Z,58.85
2022-12-03T06:39:01.572Z,62.58
2022-12-03T06:41:29.710Z,71.30
2022-12-03T06:43:57.405Z,67.43
2022-12-03T06:46:25.457Z,67.30
2022-12-03T06:48:53.139Z,74.53
2022-12-03T06:51:20.913Z,59.53
2022-12-03T06:53:48.504Z,66.72
2022-12-03T06:56:21.389Z,55.53
2022-12-03T06:58:50.397Z,63.53
2022-12-03T07:01:18.314Z,65.65
2022-12-03T07:03:46.296Z,62.72
2022-12-03T07:06:14.649Z,59.55
2022-12-03T07:08:42.967Z,53.13
2022-12-03T07:11:31.135Z,56.17
2022-12-03T07:14:05.810Z,60.22
2022-12-03T07:16:36.019Z,55.13
2022-12-03T07:19:05.271Z,44.90
2022-12-03T07:21:33.337Z,55.78
2022-12-03T07:24:02.235Z,64.22
2022-12-03T07:26:30.036Z,54.05
2022-12-03T07:28:59.538Z,44.97
2022-12-03T07:31:27.566Z,67.87
2022-12-03T07:33:55.914Z,69.63
2022-12-03T07:36:24.511Z,59.63
2022-12-03T07:38:52.709Z,66.88
2022-12-03T07:41:20.505Z,63.63
2022-12-03T07:43:48.465Z,51.47
2022-12-03T07:46:16.783Z,68.18
2022-12-03T07:48:44.792Z,49.38
2022-12-03T07:51:15.275Z,65.00
2022-12-03T07:53:44.061Z,53.13
2022-12-03T07:56:12.306Z,71.68
2022-12-03T07:58:40.546Z,66.75
2022-12-03T08:01:08.995Z,57.33
2022-12-03T08:03:37.387Z,50.38
2022-12-03T08:06:05.548Z,44.95
2022-12-03T08:08:33.407Z,41.08
2022-12-03T08:11:02.772Z,44.22
2022-12-03T08:13:31.099Z,45.83
2022-12-03T08:16:02.985Z,47.50
2022-12-03T08:18:30.959Z,52.42
2022-12-03T08:20:58.878Z,40.90
2022-12-03T08:23:26.989Z,47.75
2022-12-03T08:25:54.942Z,57.33
2022-12-03T08:28:27.374Z,57.35
2022-12-03T08:31:13.391Z,42.42
2022-12-03T08:33:42.348Z,44.53
2022-12-03T08:36:25.432Z,46.90
2022-12-03T08:38:57.450Z,54.38
2022-12-03T08:41:44.276Z,52.35
2022-12-03T08:44:15.079Z,51.72
2022-12-03T08:46:42.779Z,53.50
2022-12-03T08:49:11.045Z,58.85
2022-12-03T08:51:39.135Z,62.72
2022-12-03T08:54:16.832Z,55.65
2022-12-03T08:56:45.412Z,56.38
2022-12-03T08:59:32.728Z,58.05
2022-12-03T09:02:00.680Z,58.90
2022-12-03T09:04:46.659Z,75.32
2022-12-03T09:07:14.728Z,57.95
2022-12-03T09:09:42.421Z,55.25
2022-12-03T09:12:10.510Z,59.42
2022-12-03T09:14:38.759Z,56.03
2022-12-03T09:17:06.646Z,59.17
2022-12-03T09:19:34.691Z,59.92
2022-12-03T09:22:03.006Z,63.97
2022-12-03T09:24:30.770Z,55.83
2022-12-03T09:26:58.655Z,58.40
2022-12-03T09:29:27.275Z,57.58
2022-12-03T09:31:55.326Z,53.55
2022-12-03T09:34:23.699Z,56.78
2022-12-03T09:36:51.343Z,53.67
2022-12-03T09:39:19.321Z,61.72
2022-12-03T09:41:48.390Z,59.05
2022-12-03T09:44:19.101Z,57.80
2022-12-03T09:46:48.132Z,53.55
2022-12-03T09:49:18.222Z,53.78
2022-12-03T09:51:46.947Z,57.40
2022-12-03T09:54:24.463Z,59.95
2022-12-03T09:56:54.594Z,59.97
2022-12-03T09:59:26.374Z,55.60
2022-12-03T10:01:55.027Z,54.13
2022-12-03T10:04:23.108Z,52.92
2022-12-03T10:06:51.742Z,50.90
2022-12-03T10:09:27.539Z,50.75
2022-12-03T10:12:00.351Z,48.10
2022-12-03T10:14:28.935Z,49.45
2022-12-03T10:16:59.060Z,53.97
2022-12-03T10:19:30.737Z,47.70
2022-12-03T10:21:58.969Z,46.65
2022-12-03T10:24:29.081Z,45.13
2022-12-03T10:27:05.830Z,50.05
2022-12-03T10:29:37.305Z,43.88
2022-12-03T10:32:07.270Z,47.83
2022-12-03T10:34:40.559Z,43.28
2022-12-03T10:37:21.508Z,43.60
2022-12-03T10:39:58.141Z,48.72
2022-12-03T10:42:29.286Z,49.53
2022-12-03T10:45:15.799Z,47.45
2022-12-03T10:48:01.745Z,45.20
2022-12-03T10:50:30.332Z,46.33
2022-12-03T10:52:58.072Z,43.15
2022-12-03T10:55:27.509Z,45.53
2022-12-03T10:57:55.902Z,38.83
2022-12-03T11:00:24.515Z,45.63
2022-12-03T11:02:56.724Z,37.90
2022-12-03T11:05:28.720Z,34.72
2022-12-03T11:07:58.403Z,34.97
2022-12-03T11:10:26.386Z,40.57
2022-12-03T11:13:39.383Z,40.42
2022-12-03T11:16:12.610Z,38.78
2022-12-03T11:18:40.466Z,37.88
2022-12-03T11:21:14.882Z,39.33
2022-12-03T11:23:47.210Z,53.20
2022-12-03T11:26:39.307Z,39.45
2022-12-03T11:29:15.070Z,45.03
2022-12-03T11:31:48.852Z,44.92
2022-12-03T11:34:19.989Z,46.65
2022-12-03T11:37:10.256Z,40.90
2022-12-03T11:39:55.422Z,42.13
2022-12-03T11:42:26.442Z,35.90
2022-12-03T11:45:06.264Z,32.65
2022-12-03T11:47:41.860Z,34.58
2022-12-03T11:50:23.241Z,36.53
2022-12-03T11:53:01.331Z,32.92
2022-12-03T11:55:37.873Z,31.17
2022-12-03T11:58:26.366Z,27.75
2022-12-03T12:00:57.850Z,30.20
2022-12-03T12:03:35.461Z,25.48
2022-12-03T12:06:22.568Z,26.70
2022-12-03T12:08:52.179Z,30.38
2022-12-03T12:11:42.052Z,31.63
2022-12-03T12:14:10.997Z,34.35
2022-12-03T12:16:53.411Z,36.75
2022-12-03T12:19:40.316Z,33.33
2022-12-03T12:22:17.321Z,57.67
2022-12-03T12:24:47.214Z,33.50
2022-12-03T12:27:17.578Z,26.20
2022-12-03T12:29:51.249Z,40.55
2022-12-03T12:32:24.646Z,71.85
2022-12-03T12:35:00.688Z,74.03
2022-12-03T12:37:47.301Z,52.75
2022-12-03T12:40:18.335Z,48.28
2022-12-03T12:42:53.078Z,48.73
2022-12-03T12:45:30.170Z,54.75
2022-12-03T12:47:58.458Z,63.50
2022-12-03T12:50:27.073Z,51.83
2022-12-03T12:53:01.675Z,38.58
2022-12-03T12:55:29.971Z,35.30
2022-12-03T12:58:02.720Z,34.05
2022-12-03T13:00:32.410Z,33.78
2022-12-03T13:03:06.275Z,106.47
2022-12-03T13:05:46.076Z,45.88
2022-12-03T13:08:17.168Z,42.90
2022-12-03T13:10:46.451Z,43.60
2022-12-03T13:13:23.447Z,43.97
2022-12-03T13:16:07.219Z,38.65
2022-12-03T13:18:41.551Z,31.80
2022-12-03T13:21:18.598Z,60.03
2022-12-03T13:23:46.606Z,38.17
2022-12-03T13:26:38.788Z,61.40
2022-12-03T13:29:14.417Z,38.00
2022-12-03T13:31:47.147Z,42.25
2022-12-03T13:34:24.833Z,36.92
2022-12-03T13:36:57.954Z,34.63
2022-12-03T13:39:29.062Z,35.60
2022-12-03T13:42:18.238Z,37.30
2022-12-03T13:44:49.466Z,37.70
2022-12-03T13:47:21.696Z,32.67
2022-12-03T13:49:54.877Z,31.75
2022-12-03T13:52:26.058Z,35.25
2022-12-03T13:54:56.964Z,36.00
2022-12-03T13:57:25.009Z,36.25
2022-12-03T13:59:53.415Z,34.40
2022-12-03T14:02:22.068Z,33.95
2022-12-03T14:04:51.342Z,35.53
2022-12-03T14:07:20.975Z,34.38
2022-12-03T14:09:49.252Z,33.38
2022-12-03T14:12:26.194Z,32.22
2022-12-03T14:14:54.669Z,33.95
2022-12-03T14:17:22.898Z,34.45
2022-12-03T14:19:52.391Z,39.72
2022-12-03T14:22:23.680Z,40.35
2022-12-03T14:24:55.321Z,40.55
2022-12-03T14:27:25.473Z,38.17
2022-12-03T14:29:54.254Z,36.30
2022-12-03T14:32:22.590Z,35.30
2022-12-03T14:34:50.599Z,40.75
2022-12-03T14:37:19.155Z,36.42
2022-12-03T14:39:47.093Z,38.53
2022-12-03T14:42:15.128Z,37.25
2022-12-03T14:44:48.735Z,38.90
2022-12-03T14:47:19.550Z,37.47
2022-12-03T14:49:47.940Z,43.70
2022-12-03T14:52:16.477Z,34.05
2022-12-03T14:54:44.627Z,32.00
2022-12-03T14:57:14.770Z,34.60
2022-12-03T14:59:44.309Z,29.73
2022-12-03T15:02:13.632Z,38.70
2022-12-03T15:04:42.000Z,28.30
2022-12-03T15:07:10.922Z,39.33
2022-12-03T15:09:39.129Z,38.83
2022-12-03T15:12:07.867Z,41.00
2022-12-03T15:14:36.014Z,49.03
2022-12-03T15:17:04.083Z,62.33
2022-12-03T15:19:31.888Z,63.78
2022-12-03T15:22:01.383Z,62.55
2022-12-03T15:24:29.167Z,59.53
2022-12-03T15:26:58.088Z,52.25
2022-12-03T15:29:25.927Z,43.88
2022-12-03T15:31:54.194Z,53.70
2022-12-03T15:34:23.412Z,201.48
2022-12-03T15:36:52.080Z,55.85
2022-12-03T15:39:20.302Z,83.10
2022-12-03T15:41:49.964Z,31.85
2022-12-03T15:44:18.112Z,47.90
2022-12-03T15:46:46.055Z,46.20
2022-12-03T15:49:14.225Z,46.70
2022-12-03T15:51:43.765Z,56.63
2022-12-03T15:54:12.524Z,56.97
2022-12-03T15:56:40.699Z,68.90
2022-12-03T15:59:08.599Z,111.75
2022-12-03T16:01:36.770Z,93.68
2022-12-03T16:04:04.788Z,94.88
2022-12-03T16:06:32.686Z,140.23
2022-12-03T16:09:01.060Z,103.72
2022-12-03T16:11:28.860Z,87.53
2022-12-03T16:13:57.822Z,75.95
2022-12-03T16:16:25.922Z,47.90
2022-12-03T16:18:54.097Z,46.45
2022-12-03T16:21:26.769Z,60.08
2022-12-03T16:23:56.151Z,59.85
2022-12-03T16:26:24.962Z,64.57
2022-12-03T16:28:54.525Z,81.97
2022-12-03T16:31:23.995Z,87.37
2022-12-03T16:33:52.147Z,89.35
2022-12-03T16:36:20.280Z,74.55
2022-12-03T16:38:48.368Z,67.40
2022-12-03T16:41:16.315Z,72.85
2022-12-03T16:43:49.060Z,88.05
2022-12-03T16:46:26.597Z,83.28
2022-12-03T16:48:57.264Z,73.97
2022-12-03T16:51:30.957Z,65.50
2022-12-03T16:53:59.192Z,55.72
2022-12-03T16:56:27.222Z,54.97
2022-12-03T16:58:54.959Z,55.90
2022-12-03T17:01:25.427Z,56.22
2022-12-03T17:03:53.690Z,58.20
2022-12-03T17:06:21.867Z,53.42
2022-12-03T17:08:50.208Z,57.40
2022-12-03T17:11:19.543Z,60.28
2022-12-03T17:13:49.679Z,65.82
2022-12-03T17:16:18.379Z,81.72
2022-12-03T17:18:46.622Z,73.10
2022-12-03T17:21:14.787Z,73.60
2022-12-03T17:23:43.072Z,72.45
2022-12-03T17:26:11.158Z,76.25
2022-12-03T17:28:39.054Z,78.03
2022-12-03T17:31:07.656Z,81.53
2022-12-03T17:33:35.840Z,80.18
2022-12-03T17:36:04.110Z,89.57
2022-12-03T17:38:37.351Z,87.03
2022-12-03T17:41:08.143Z,83.15
2022-12-03T17:43:36.532Z,73.80
2022-12-03T17:46:05.832Z,73.30
2022-12-03T17:51:04.940Z,69.40
2022-12-03T17:53:36.629Z,68.70
2022-12-03T17:56:06.265Z,68.93
2022-12-03T17:58:34.360Z,72.60
2022-12-03T18:01:03.254Z,73.57
2022-12-03T18:03:32.641Z,84.88
2022-12-03T18:06:01.855Z,85.45
2022-12-03T18:08:29.657Z,85.07
2022-12-03T18:10:57.707Z,90.50
2022-12-03T18:13:26.208Z,74.80
2022-12-03T18:15:55.023Z,74.90
2022-12-03T18:18:23.093Z,75.38
2022-12-03T18:20:52.352Z,71.10
2022-12-03T18:23:20.769Z,66.43
2022-12-03T18:25:49.469Z,86.78
2022-12-03T18:28:19.031Z,53.75
2022-12-03T18:30:52.243Z,48.08
2022-12-03T18:33:24.507Z,37.78
2022-12-03T18:35:54.703Z,33.03
2022-12-03T18:38:25.197Z,37.92
2022-12-03T18:40:55.792Z,46.10
2022-12-03T18:43:25.750Z,91.10
2022-12-03T18:45:54.292Z,85.40
2022-12-03T18:48:24.464Z,116.90
2022-12-03T18:50:52.631Z,122.50
2022-12-03T18:53:20.973Z,118.65
2022-12-03T18:55:49.029Z,122.78
2022-12-03T18:58:22.711Z,132.93
2022-12-03T19:00:51.531Z,122.43
2022-12-03T19:03:19.632Z,114.60
2022-12-03T19:05:47.644Z,109.18
2022-12-03T19:08:16.684Z,95.85
2022-12-03T19:10:45.194Z,82.50
2022-12-03T19:13:14.958Z,78.00
2022-12-03T19:15:42.887Z,44.85
2022-12-03T19:18:11.013Z,54.00
2022-12-03T19:20:41.894Z,75.20
2022-12-03T19:23:12.270Z,76.45
2022-12-03T19:28:09.179Z,74.05
2022-12-03T19:30:37.615Z,72.07
2022-12-03T19:33:06.159Z,70.70
2022-12-03T19:35:40.301Z,76.30
2022-12-03T19:38:11.386Z,73.32
2022-12-03T19:40:40.469Z,75.55
2022-12-03T19:43:16.751Z,74.22
2022-12-03T19:45:44.808Z,86.13
2022-12-03T19:48:12.845Z,88.43
2022-12-03T19:51:02.889Z,91.88
2022-12-03T19:53:41.213Z,79.93
2022-12-03T19:56:17.434Z,87.25
2022-12-03T19:58:47.153Z,88.40
2022-12-03T20:01:19.026Z,84.20
2022-12-03T20:03:49.071Z,79.57
2022-12-03T20:06:19.169Z,71.95
2022-12-03T20:08:47.544Z,67.72
2022-12-03T20:11:21.474Z,61.63
2022-12-03T20:13:54.277Z,46.65
2022-12-03T20:16:24.447Z,41.08
2022-12-03T20:18:56.072Z,47.90
2022-12-03T20:21:24.351Z,39.40
2022-12-03T20:23:52.345Z,36.60
2022-12-03T20:26:22.030Z,33.75
2022-12-03T20:28:51.146Z,47.88
2022-12-03T20:31:21.088Z,41.95
2022-12-03T20:33:51.443Z,35.70
2022-12-03T20:38:49.647Z,33.40
2022-12-03T20:41:21.275Z,93.13
2022-12-03T20:43:49.647Z,106.93
2022-12-03T20:46:28.170Z,107.78
2022-12-03T20:48:58.275Z,103.35
2022-12-03T20:51:30.172Z,146.98
2022-12-03T20:54:00.244Z,134.40
2022-12-03T20:56:34.112Z,95.13
2022-12-03T20:59:12.160Z,105.05
2022-12-03T21:01:40.792Z,97.25
2022-12-03T21:04:11.177Z,92.43
2022-12-03T21:09:13.478Z,97.68
2022-12-03T21:11:42.680Z,94.45
2022-12-03T21:14:11.698Z,92.00
2022-12-03T21:17:10.134Z,93.68
2022-12-03T21:19:28.365Z,94.40
2022-12-03T21:21:59.612Z,81.20
2022-12-03T21:24:27.546Z,47.83
2022-12-03T21:26:55.843Z,43.63
2022-12-03T21:29:27.909Z,42.58
2022-12-03T21:31:57.855Z,41.10
2022-12-03T21:34:27.352Z,42.53
2022-12-03T21:36:57.119Z,40.20
2022-12-03T21:39:25.219Z,39.70
2022-12-03T21:42:19.109Z,43.90
2022-12-03T21:44:41.901Z,87.45
2022-12-03T21:47:14.237Z,94.47
2022-12-03T21:49:42.554Z,95.13
2022-12-03T21:52:10.956Z,94.22
2022-12-03T21:54:38.825Z,93.00
2022-12-03T21:57:07.276Z,91.45
2022-12-03T21:59:34.991Z,91.43
2022-12-03T22:02:03.037Z,83.22
2022-12-03T22:04:31.481Z,83.63
2022-12-03T22:06:59.509Z,84.55
2022-12-03T22:09:27.404Z,81.38
2022-12-03T22:11:57.123Z,75.45
2022-12-03T22:14:25.624Z,56.33
2022-12-03T22:16:54.912Z,44.13
2022-12-03T22:19:26.253Z,42.33
2022-12-03T22:21:54.078Z,40.97
2022-12-03T22:24:24.426Z,43.40
2022-12-03T22:26:53.616Z,40.50
2022-12-03T22:29:21.484Z,42.72
2022-12-03T22:31:49.448Z,39.10
2022-12-03T22:34:17.183Z,93.47
2022-12-03T22:36:46.831Z,101.78
2022-12-03T22:39:14.694Z,110.20
2022-12-03T22:41:42.843Z,108.28
2022-12-03T22:44:10.830Z,97.43
2022-12-03T22:46:38.733Z,92.32
2022-12-03T22:49:07.771Z,89.13
2022-12-03T22:51:36.513Z,75.07
2022-12-03T22:54:05.944Z,79.03
2022-12-03T22:56:34.133Z,78.53
2022-12-03T22:59:02.301Z,69.28
2022-12-03T23:01:33.441Z,68.32
2022-12-03T23:04:02.352Z,61.13
2022-12-03T23:06:31.413Z,54.33
2022-12-03T23:08:59.609Z,49.63
2022-12-03T23:11:28.907Z,47.22
2022-12-03T23:13:57.442Z,52.28
2022-12-03T23:16:29.048Z,49.97
2022-12-03T23:19:02.591Z,43.72
2022-12-03T23:21:34.156Z,43.25
2022-12-03T23:24:04.909Z,38.95
2022-12-03T23:26:36.262Z,44.35
2022-12-03T23:29:06.184Z,44.70
2022-12-03T23:31:34.298Z,54.97
2022-12-03T23:34:02.950Z,82.68
2022-12-03T23:36:32.962Z,61.65
2022-12-03T23:39:01.297Z,62.80
2022-12-03T23:41:29.415Z,66.28
2022-12-03T23:43:57.604Z,64.85
2022-12-03T23:46:27.763Z,64.30
2022-12-03T23:48:55.894Z,64.82
2022-12-03T23:51:24.878Z,62.10
2022-12-03T23:53:54.395Z,62.40
2022-12-03T23:56:29.314Z,43.87
2022-12-03T23:58:58.104Z,57.03
